Terminal Aerodrome Forecast
Issued by NWS Atlanta, GA

Home | Current Version | Previous Version | Text Only | Print | Product List | Glossary On
Versions: 1 2 3 4 5 6 7 8 9 10 11 12 13 14 15 16 17
000
FTUS42 KFFC 210520
TAFMCN
TAF
KMCN 210520Z 2106/2206 VRB03KT P6SM BKN040 BKN250
     FM210900 VRB03KT P6SM SCT015 BKN035
     FM211500 12004KT P6SM SCT035 BKN180
     FM212200 10003KT P6SM BKN040
     FM220300 VRB03KT 3SM BR BKN008 OVC030=

USA.gov is the U.S. government's official web portal to all federal, state and local government web resources and services.